Pomorze — C6WU2 — position and weather

sailwx.info

Track history (hours):
 
Tides and Currents Weather Stations Pressure Air Temp Water Temp Dewpoint Dewpoint Depression Visibility Wind Speed Wind Dir Waves Ship Positions

Pomorze

Last reported at 2018-May-05 21:28 UTC. Time now 2018-May-24 14:08 UTC.
Position N 09°11' W 079°52'.
Warning: this ship's position is 18 days out of date.

Length 189 m; draft 10.2 m.

Type: Ship (hazmat cat A). MMSI: 311358000.

Date/timePositionNaut miles runAvg speedWind from/ knotsBaromVisibWave heightAir tempDewpointWater temp
2018-May-05 21:28N 09°11' W 079°52'4 7.3
2018-May-05 20:58N 09°12' W 079°55'1 1.3
2018-May-05 20:17N 09°13' W 079°56'0 0.1
2018-May-05 19:59N 09°13' W 079°56'0 0.1
2018-May-05 19:29N 09°13' W 079°56'0 0.0
2018-May-05 18:56N 09°13' W 079°56'0 0.0
2018-May-05 18:29N 09°13' W 079°56'0 0.1
2018-May-05 17:59N 09°13' W 079°56'0 0.0
2018-May-05 17:29N 09°13' W 079°56'0 0.0
2018-May-05 16:56N 09°13' W 079°56'0 0.0
2018-May-05 16:29N 09°13' W 079°56'0 0.0
2018-May-05 15:59N 09°13' W 079°56'0 0.0
2018-May-05 15:26N 09°13' W 079°56'0 0.2
2018-May-05 14:59N 09°13' W 079°56'0 0.3
2018-May-05 14:29N 09°13' W 079°56'0 0.0
2018-May-05 13:59N 09°13' W 079°56'0 0.0
2018-May-05 13:29N 09°13' W 079°56'0 0.0
2018-May-05 12:47N 09°13' W 079°56'0 0.0
2018-May-05 12:29N 09°13' W 079°56'0 0.0
2018-May-05 11:59N 09°13' W 079°56'0 0.0
2018-May-05 11:29N 09°13' W 079°56'0 0.0
2018-May-05 09:14N 09°13' W 079°56'0 0.0
2018-May-05 08:59N 09°13' W 079°56'0 0.0
2018-May-05 07:17N 09°13' W 079°56'1 2.7
2018-May-05 06:58N 09°14' W 079°56'2 4.7
2018-May-05 06:30N 09°16' W 079°55'0 0.7
2018-May-05 05:57N 09°16' W 079°55'0 0.4
2018-May-05 05:30N 09°17' W 079°55'0 0.9
2018-May-05 05:00N 09°17' W 079°55'2 4.2
2018-May-05 04:30N 09°19' W 079°55'3 6.7
2018-May-05 04:01N 09°22' W 079°56'0 0.6
2018-May-05 03:29N 09°22' W 079°56'0 0.0
2018-May-05 02:59N 09°22' W 079°56'0 0.0
2018-May-05 02:29N 09°22' W 079°56'0 0.0
2018-May-05 01:59N 09°22' W 079°56'0 0.1
2018-May-05 01:29N 09°22' W 079°56'0 0.1
2018-May-05 00:59N 09°22' W 079°56'0 0.1
2018-May-05 00:29N 09°22' W 079°56'0 0.0
2018-May-04 23:59N 09°22' W 079°56'0 0.0
2018-May-04 23:29N 09°22' W 079°56'0 0.0
2018-May-04 22:59N 09°22' W 079°56'0 0.0
2018-May-04 22:29N 09°22' W 079°56'0 0.0
2018-May-04 21:59N 09°22' W 079°56'0 0.0
2018-May-04 21:26N 09°22' W 079°56'0 0.0
2018-May-04 20:59N 09°22' W 079°56'0 0.0
2018-May-04 20:29N 09°22' W 079°56'0 0.1
2018-May-04 19:59N 09°22' W 079°56'0 0.1
2018-May-04 19:29N 09°22' W 079°56'0 0.0
2018-May-04 18:59N 09°22' W 079°56'0 0.1
2018-May-04 18:29N 09°22' W 079°56'0 0.1
2018-May-04 17:59N 09°22' W 079°56'0 0.0
2018-May-04 17:29N 09°22' W 079°56'0 0.0
2018-May-04 16:59N 09°22' W 079°56'0 0.0
2018-May-04 16:29N 09°22' W 079°56'0 0.0
2018-May-04 15:59N 09°22' W 079°56'0 0.1
2018-May-04 15:29N 09°22' W 079°56'0 0.0
2018-May-04 14:59N 09°22' W 079°56'0 0.0
2018-May-04 14:29N 09°22' W 079°56'0 0.0
2018-May-04 13:59N 09°22' W 079°56'0 0.2
2018-May-04 13:30N 09°22' W 079°56'0 0.4
2018-May-04 13:00N 09°22' W 079°56'0 0.4
2018-May-04 12:30N 09°22' W 079°56'1 2.3
2018-May-04 12:00N 09°23' W 079°55'3 6.4
2018-May-04 11:30N 09°27' W 079°56'2 3.3
2018-May-04 11:00N 09°26' W 079°57'1 0.3
2018-May-04 09:19N 09°26' W 079°57'0 0.0
2018-May-04 08:49N 09°26' W 079°57'0 0.0
2018-May-04 08:25N 09°26' W 079°57'0 0.0
2018-May-04 06:07N 09°26' W 079°57'0 0.2
2018-May-04 05:58N 09°26' W 079°57'0 0.1
2018-May-04 05:28N 09°26' W 079°57'0 0.0
2018-May-04 04:55N 09°26' W 079°57'0 0.0
2018-May-04 04:25N 09°26' W 079°57'0 0.0
2018-May-04 03:49N 09°26' W 079°57'0 0.0
2018-May-04 02:34N 09°26' W 079°57'0 0.1
2018-May-04 02:25N 09°26' W 079°57'0 0.0
2018-May-04 01:55N 09°26' W 079°57'0 0.0
2018-May-04 01:25N 09°26' W 079°57'0 0.1
2018-May-04 00:58N 09°26' W 079°57'0 0.0
2018-May-04 00:28N 09°26' W 079°57'0 0.0
2018-May-03 19:01N 09°26' W 079°57'0 0.0
2018-May-03 18:58N 09°26' W 079°57'0 0.0
2018-May-03 18:10N 09°26' W 079°57'0 0.2
2018-May-03 18:00N 09°26' W 079°57'1 1.4
2018-May-03 17:31N 09°25' W 079°58'2 4.2
2018-May-03 17:00N 09°27' W 079°58'4 7.8
2018-May-03 16:30N 09°30' W 079°55'5 9.3
2018-May-03 16:00N 09°34' W 079°53'  
2018-Apr-29 19:05N 16°16' W 062°45'1 9.9
2018-Apr-29 18:59N 16°17' W 062°44'510.1
2018-Apr-29 18:30N 16°19' W 062°40'510.4
2018-Apr-29 18:00N 16°21' W 062°34'510.6
2018-Apr-29 17:30N 16°22' W 062°29'611.3
2018-Apr-29 17:00N 16°24' W 062°24'611.6
2018-Apr-29 16:31N 16°26' W 062°18'612.0
2018-Apr-29 16:00N 16°28' W 062°12'612.3
2018-Apr-29 15:30N 16°30' W 062°06'612.2
2018-Apr-29 15:00N 16°33' W 062°00'612.0
2018-Apr-29 14:30N 16°35' W 061°54'611.7
2018-Apr-29 14:01N 16°37' W 061°49'611.8
2018-Apr-29 13:30N 16°39' W 061°43'611.4
2018-Apr-29 13:01N 16°41' W 061°38'611.7
2018-Apr-29 12:31N 16°43' W 061°32'612.1
2018-Apr-29 12:01N 16°45' W 061°26'611.1
2018-Apr-29 11:30N 16°49' W 061°22'611.5
2018-Apr-29 11:01N 16°54' W 061°19'611.5
2018-Apr-29 10:30N 16°59' W 061°16'611.6
2018-Apr-29 10:00N 17°04' W 061°12'611.5
2018-Apr-29 09:30N 17°08' W 061°09'611.5
2018-Apr-29 09:00N 17°13' W 061°05'611.2
2018-Apr-29 08:30N 17°17' W 061°01'  
Track history (hours):
 
Tides and Currents Weather Stations Pressure Air Temp Water Temp Dewpoint Dewpoint Depression Visibility Wind Speed Wind Dir Waves Ship Positions

Pomorze

Last reported at 2018-May-05 21:28 UTC. Time now 2018-May-24 14:08 UTC.
Position N 09°11' W 079°52'.
Warning: this ship's position is 18 days out of date.

Length 189 m; draft 10.2 m.

Type: Ship (hazmat cat A). MMSI: 311358000.

Date/timePositionNaut miles runAvg speedWind from/ knotsBaromVisibWave heightAir tempDewpointWater temp
2018-May-05 21:28N 09°11' W 079°52'4 7.3
2018-May-05 20:58N 09°12' W 079°55'1 1.3
2018-May-05 20:17N 09°13' W 079°56'0 0.1
2018-May-05 19:59N 09°13' W 079°56'0 0.1
2018-May-05 19:29N 09°13' W 079°56'0 0.0
2018-May-05 18:56N 09°13' W 079°56'0 0.0
2018-May-05 18:29N 09°13' W 079°56'0 0.1
2018-May-05 17:59N 09°13' W 079°56'0 0.0
2018-May-05 17:29N 09°13' W 079°56'0 0.0
2018-May-05 16:56N 09°13' W 079°56'0 0.0
2018-May-05 16:29N 09°13' W 079°56'0 0.0
2018-May-05 15:59N 09°13' W 079°56'0 0.0
2018-May-05 15:26N 09°13' W 079°56'0 0.2
2018-May-05 14:59N 09°13' W 079°56'0 0.3
2018-May-05 14:29N 09°13' W 079°56'0 0.0
2018-May-05 13:59N 09°13' W 079°56'0 0.0
2018-May-05 13:29N 09°13' W 079°56'0 0.0
2018-May-05 12:47N 09°13' W 079°56'0 0.0
2018-May-05 12:29N 09°13' W 079°56'0 0.0
2018-May-05 11:59N 09°13' W 079°56'0 0.0
2018-May-05 11:29N 09°13' W 079°56'0 0.0
2018-May-05 09:14N 09°13' W 079°56'0 0.0
2018-May-05 08:59N 09°13' W 079°56'0 0.0
2018-May-05 07:17N 09°13' W 079°56'1 2.7
2018-May-05 06:58N 09°14' W 079°56'2 4.7
2018-May-05 06:30N 09°16' W 079°55'0 0.7
2018-May-05 05:57N 09°16' W 079°55'0 0.4
2018-May-05 05:30N 09°17' W 079°55'0 0.9
2018-May-05 05:00N 09°17' W 079°55'2 4.2
2018-May-05 04:30N 09°19' W 079°55'3 6.7
2018-May-05 04:01N 09°22' W 079°56'0 0.6
2018-May-05 03:29N 09°22' W 079°56'0 0.0
2018-May-05 02:59N 09°22' W 079°56'0 0.0
2018-May-05 02:29N 09°22' W 079°56'0 0.0
2018-May-05 01:59N 09°22' W 079°56'0 0.1
2018-May-05 01:29N 09°22' W 079°56'0 0.1
2018-May-05 00:59N 09°22' W 079°56'0 0.1
2018-May-05 00:29N 09°22' W 079°56'0 0.0
2018-May-04 23:59N 09°22' W 079°56'0 0.0
2018-May-04 23:29N 09°22' W 079°56'0 0.0
2018-May-04 22:59N 09°22' W 079°56'0 0.0
2018-May-04 22:29N 09°22' W 079°56'0 0.0
2018-May-04 21:59N 09°22' W 079°56'0 0.0
2018-May-04 21:26N 09°22' W 079°56'0 0.0
2018-May-04 20:59N 09°22' W 079°56'0 0.0
2018-May-04 20:29N 09°22' W 079°56'0 0.1
2018-May-04 19:59N 09°22' W 079°56'0 0.1
2018-May-04 19:29N 09°22' W 079°56'0 0.0
2018-May-04 18:59N 09°22' W 079°56'0 0.1
2018-May-04 18:29N 09°22' W 079°56'0 0.1
2018-May-04 17:59N 09°22' W 079°56'0 0.0
2018-May-04 17:29N 09°22' W 079°56'0 0.0
2018-May-04 16:59N 09°22' W 079°56'0 0.0
2018-May-04 16:29N 09°22' W 079°56'0 0.0
2018-May-04 15:59N 09°22' W 079°56'0 0.1
2018-May-04 15:29N 09°22' W 079°56'0 0.0
2018-May-04 14:59N 09°22' W 079°56'0 0.0
2018-May-04 14:29N 09°22' W 079°56'0 0.0
2018-May-04 13:59N 09°22' W 079°56'0 0.2
2018-May-04 13:30N 09°22' W 079°56'0 0.4
2018-May-04 13:00N 09°22' W 079°56'0 0.4
2018-May-04 12:30N 09°22' W 079°56'1 2.3
2018-May-04 12:00N 09°23' W 079°55'3 6.4
2018-May-04 11:30N 09°27' W 079°56'2 3.3
2018-May-04 11:00N 09°26' W 079°57'1 0.3
2018-May-04 09:19N 09°26' W 079°57'0 0.0
2018-May-04 08:49N 09°26' W 079°57'0 0.0
2018-May-04 08:25N 09°26' W 079°57'0 0.0
2018-May-04 06:07N 09°26' W 079°57'0 0.2
2018-May-04 05:58N 09°26' W 079°57'0 0.1
2018-May-04 05:28N 09°26' W 079°57'0 0.0
2018-May-04 04:55N 09°26' W 079°57'0 0.0
2018-May-04 04:25N 09°26' W 079°57'0 0.0
2018-May-04 03:49N 09°26' W 079°57'0 0.0
2018-May-04 02:34N 09°26' W 079°57'0 0.1
2018-May-04 02:25N 09°26' W 079°57'0 0.0
2018-May-04 01:55N 09°26' W 079°57'0 0.0
2018-May-04 01:25N 09°26' W 079°57'0 0.1
2018-May-04 00:58N 09°26' W 079°57'0 0.0
2018-May-04 00:28N 09°26' W 079°57'0 0.0
2018-May-03 19:01N 09°26' W 079°57'0 0.0
2018-May-03 18:58N 09°26' W 079°57'0 0.0
2018-May-03 18:10N 09°26' W 079°57'0 0.2
2018-May-03 18:00N 09°26' W 079°57'1 1.4
2018-May-03 17:31N 09°25' W 079°58'2 4.2
2018-May-03 17:00N 09°27' W 079°58'4 7.8
2018-May-03 16:30N 09°30' W 079°55'5 9.3
2018-May-03 16:00N 09°34' W 079°53'  
2018-Apr-29 19:05N 16°16' W 062°45'1 9.9
2018-Apr-29 18:59N 16°17' W 062°44'510.1
2018-Apr-29 18:30N 16°19' W 062°40'510.4
2018-Apr-29 18:00N 16°21' W 062°34'510.6
2018-Apr-29 17:30N 16°22' W 062°29'611.3
2018-Apr-29 17:00N 16°24' W 062°24'611.6
2018-Apr-29 16:31N 16°26' W 062°18'612.0
2018-Apr-29 16:00N 16°28' W 062°12'612.3
2018-Apr-29 15:30N 16°30' W 062°06'612.2
2018-Apr-29 15:00N 16°33' W 062°00'612.0
2018-Apr-29 14:30N 16°35' W 061°54'611.7
2018-Apr-29 14:01N 16°37' W 061°49'611.8
2018-Apr-29 13:30N 16°39' W 061°43'611.4
2018-Apr-29 13:01N 16°41' W 061°38'611.7
2018-Apr-29 12:31N 16°43' W 061°32'612.1
2018-Apr-29 12:01N 16°45' W 061°26'611.1
2018-Apr-29 11:30N 16°49' W 061°22'611.5
2018-Apr-29 11:01N 16°54' W 061°19'611.5
2018-Apr-29 10:30N 16°59' W 061°16'611.6
2018-Apr-29 10:00N 17°04' W 061°12'611.5
2018-Apr-29 09:30N 17°08' W 061°09'611.5
2018-Apr-29 09:00N 17°13' W 061°05'611.2
2018-Apr-29 08:30N 17°17' W 061°01'  

Dump ship's entire track history